createdAt,value
2023-01-29T08:19:35.626Z,1.08
2023-01-29T08:20:08.621Z,1.07
2023-01-29T08:21:08.644Z,1.16
2023-01-29T08:22:08.716Z,1.39
2023-01-29T08:23:08.727Z,1.40
2023-01-29T08:24:08.764Z,1.51
2023-01-29T08:25:08.924Z,1.65
2023-01-29T08:26:08.844Z,1.61
2023-01-29T08:27:08.892Z,1.75
2023-01-29T08:28:08.932Z,1.93
2023-01-29T08:29:08.984Z,1.99
2023-01-29T08:30:09.079Z,1.93
2023-01-29T08:31:09.145Z,2.09
2023-01-29T08:32:09.109Z,2.09
2023-01-29T08:33:09.134Z,2.10
2023-01-29T08:34:09.176Z,2.26
2023-01-29T08:35:09.238Z,2.27
2023-01-29T08:36:09.294Z,2.28
2023-01-29T08:37:09.318Z,2.33
2023-01-29T08:38:09.344Z,2.26
2023-01-29T08:39:09.402Z,2.28
2023-01-29T08:40:09.534Z,2.23
2023-01-29T08:41:09.495Z,2.26
2023-01-29T08:42:09.563Z,2.15
2023-01-29T08:43:09.715Z,2.06
2023-01-29T08:46:46.982Z,2.27
2023-01-29T08:47:47.003Z,2.44
2023-01-29T08:48:47.035Z,2.49
2023-01-29T08:49:47.077Z,2.37
2023-01-29T08:50:47.116Z,2.40
2023-01-29T08:51:47.312Z,2.35
2023-01-29T08:52:47.190Z,2.58
2023-01-29T08:53:47.275Z,2.73
2023-01-29T08:54:47.276Z,2.98
2023-01-29T08:55:47.332Z,2.82
2023-01-29T08:56:47.359Z,2.69
2023-01-29T08:57:47.416Z,2.77
2023-01-29T08:58:47.446Z,2.58
2023-01-29T08:59:47.509Z,2.66
2023-01-29T09:00:47.526Z,2.73
2023-01-29T09:01:47.592Z,2.92
2023-01-29T09:02:47.726Z,2.97
2023-01-29T09:03:47.661Z,2.98
2023-01-29T09:04:47.699Z,2.89
2023-01-29T09:05:47.740Z,3.00
2023-01-29T09:06:47.800Z,2.91
2023-01-29T09:07:55.115Z,2.89
2023-01-29T09:08:47.869Z,3.12
2023-01-29T09:09:47.935Z,3.21
2023-01-29T09:10:47.954Z,3.10
2023-01-29T09:11:48.053Z,3.27
2023-01-29T09:12:48.043Z,3.28
2023-01-29T09:13:48.077Z,3.31
2023-01-29T09:14:48.123Z,3.31
2023-01-29T09:15:48.173Z,3.30
2023-01-29T09:16:48.241Z,3.30
2023-01-29T09:17:48.266Z,3.42
2023-01-29T09:18:48.298Z,3.43
2023-01-29T09:19:49.060Z,3.52
2023-01-29T09:20:48.386Z,3.53
2023-01-29T09:21:48.459Z,3.67
2023-01-29T09:22:48.470Z,3.76
2023-01-29T09:23:48.503Z,3.36
2023-01-29T09:24:48.587Z,3.47
2023-01-29T09:25:48.627Z,3.57
2023-01-29T09:26:48.645Z,3.52
2023-01-29T09:27:48.699Z,3.39
2023-01-29T09:28:48.749Z,3.50
2023-01-29T09:29:48.787Z,3.62
2023-01-29T09:30:48.944Z,3.94
2023-01-29T09:31:49.676Z,3.97
2023-01-29T09:32:53.906Z,3.96
2023-01-29T09:33:48.950Z,4.01
2023-01-29T09:34:48.980Z,4.07
2023-01-29T09:35:49.059Z,4.36
2023-01-29T09:36:49.082Z,4.42
2023-01-29T09:37:49.157Z,4.47
2023-01-29T09:38:49.166Z,4.25
2023-01-29T09:39:49.202Z,4.42
2023-01-29T09:40:49.315Z,4.57
2023-01-29T09:41:49.295Z,4.83
2023-01-29T09:42:49.328Z,4.65
2023-01-29T09:43:49.373Z,4.47
2023-01-29T09:44:49.414Z,4.37
2023-01-29T09:45:49.518Z,4.36
2023-01-29T09:46:49.510Z,4.50
2023-01-29T09:47:49.543Z,4.62
2023-01-29T09:48:49.606Z,4.32
2023-01-29T09:49:49.638Z,4.61
2023-01-29T09:50:49.710Z,4.64
2023-01-29T09:51:49.721Z,4.44
2023-01-29T09:52:49.768Z,4.50
2023-01-29T09:53:49.812Z,4.51
2023-01-29T09:54:49.877Z,4.32
2023-01-29T09:55:49.897Z,4.26
2023-01-29T09:56:49.969Z,4.33
2023-01-29T09:57:49.989Z,4.62
2023-01-29T09:58:50.034Z,4.40
2023-01-29T09:59:50.096Z,4.64
2023-01-29T10:00:50.133Z,4.76
2023-01-29T10:01:50.303Z,4.89
2023-01-29T10:02:50.215Z,5.04
2023-01-29T10:03:50.285Z,5.20
2023-01-29T10:04:50.330Z,5.23
2023-01-29T10:05:50.378Z,4.89
2023-01-29T10:06:51.061Z,4.91
2023-01-29T10:07:50.484Z,4.70
2023-01-29T10:08:50.504Z,4.76
2023-01-29T10:09:50.526Z,4.86
2023-01-29T10:10:50.576Z,5.12
2023-01-29T10:11:50.618Z,5.23
2023-01-29T10:12:51.570Z,5.13
2023-01-29T10:13:50.724Z,5.12
2023-01-29T10:14:50.767Z,5.37
2023-01-29T10:15:50.802Z,5.38
2023-01-29T10:16:50.895Z,5.46
2023-01-29T10:17:50.896Z,5.68
2023-01-29T10:18:50.958Z,5.52
2023-01-29T10:19:50.976Z,5.81
2023-01-29T10:20:51.031Z,5.86
2023-01-29T10:21:51.088Z,5.93
2023-01-29T10:22:51.154Z,5.98
2023-01-29T10:23:51.196Z,5.64
2023-01-29T10:24:51.222Z,5.71
2023-01-29T10:25:51.258Z,5.85
2023-01-29T10:26:51.347Z,5.81
2023-01-29T10:27:51.355Z,5.75
2023-01-29T10:28:51.406Z,5.83
2023-01-29T10:29:51.451Z,6.11
2023-01-29T10:30:51.628Z,6.30
2023-01-29T10:31:51.688Z,6.13
2023-01-29T10:32:51.618Z,6.33
2023-01-29T10:34:02.126Z,5.92
2023-01-29T10:34:51.720Z,6.06
2023-01-29T10:35:51.758Z,6.13
2023-01-29T10:36:51.784Z,6.13
2023-01-29T10:37:51.829Z,6.21
2023-01-29T10:38:51.874Z,6.03
2023-01-29T10:39:51.930Z,6.04
2023-01-29T10:40:51.985Z,6.14
2023-01-29T10:41:53.879Z,6.09
2023-01-29T10:42:52.063Z,5.91
2023-01-29T10:43:52.101Z,6.50
2023-01-29T10:44:52.203Z,6.81
2023-01-29T10:45:52.197Z,6.16
2023-01-29T10:46:52.297Z,6.44
2023-01-29T10:47:52.376Z,6.66
2023-01-29T10:48:52.340Z,5.91
2023-01-29T10:49:52.396Z,5.89
2023-01-29T10:50:52.478Z,5.64
2023-01-29T10:51:52.502Z,5.95
2023-01-29T10:52:52.530Z,6.14
2023-01-29T10:53:52.587Z,6.54
2023-01-29T10:54:52.644Z,6.16
2023-01-29T10:55:52.706Z,6.14
2023-01-29T10:56:52.736Z,6.65
2023-01-29T10:57:52.790Z,6.56
2023-01-29T10:58:52.823Z,6.62
2023-01-29T10:59:52.895Z,6.35
2023-01-29T11:00:52.957Z,6.06
2023-01-29T11:01:53.037Z,5.60
2023-01-29T11:02:53.100Z,5.28
2023-01-29T11:03:53.126Z,5.88
2023-01-29T11:04:53.152Z,5.74
2023-01-29T11:05:53.197Z,5.88
2023-01-29T11:06:53.219Z,5.56
2023-01-29T11:07:53.315Z,5.93
2023-01-29T11:08:53.315Z,5.34
2023-01-29T11:09:53.368Z,4.95
2023-01-29T11:10:53.445Z,4.84
2023-01-29T11:11:53.497Z,4.51
2023-01-29T11:12:53.523Z,4.67
2023-01-29T11:13:53.593Z,4.32
2023-01-29T11:14:53.625Z,4.14
2023-01-29T11:15:53.683Z,4.04
2023-01-29T11:16:53.767Z,4.00
2023-01-29T11:17:54.588Z,4.36
2023-01-29T11:18:53.847Z,4.08
2023-01-29T11:19:53.871Z,4.22
2023-01-29T11:20:53.888Z,4.14
2023-01-29T11:21:53.963Z,4.40
2023-01-29T11:22:53.999Z,4.16
2023-01-29T11:23:54.035Z,3.96
2023-01-29T11:25:02.131Z,4.07
2023-01-29T11:25:54.137Z,4.14
2023-01-29T11:26:54.160Z,4.06
2023-01-29T11:27:54.233Z,3.96
2023-01-29T11:28:54.257Z,4.01
2023-01-29T11:29:55.123Z,4.33
2023-01-29T11:30:54.411Z,4.01
2023-01-29T11:31:54.407Z,4.25
2023-01-29T11:32:54.468Z,4.50
2023-01-29T11:33:54.471Z,4.61
2023-01-29T11:34:54.510Z,4.46
2023-01-29T11:35:54.564Z,4.07
2023-01-29T11:36:54.600Z,4.04
2023-01-29T11:37:54.680Z,4.19
2023-01-29T11:38:54.687Z,4.22
2023-01-29T11:39:54.735Z,4.37
2023-01-29T11:40:54.769Z,4.32
2023-01-29T11:41:54.840Z,4.26
2023-01-29T11:42:54.886Z,4.03
2023-01-29T11:43:54.922Z,4.12
2023-01-29T11:44:54.947Z,4.37
2023-01-29T11:45:54.986Z,4.36
2023-01-29T11:46:55.039Z,4.33
2023-01-29T11:47:55.083Z,4.32
2023-01-29T11:48:59.342Z,4.36
2023-01-29T11:49:55.169Z,4.22
2023-01-29T11:50:55.314Z,4.43
2023-01-29T11:51:55.636Z,4.72
2023-01-29T11:52:55.327Z,4.79
2023-01-29T11:53:55.365Z,4.79
2023-01-29T11:54:55.413Z,4.92
2023-01-29T11:55:55.415Z,5.28
2023-01-29T11:56:55.470Z,5.01
2023-01-29T11:57:55.513Z,5.25
2023-01-29T11:58:55.613Z,4.91
2023-01-29T11:59:55.597Z,4.99
2023-01-29T12:00:55.671Z,4.92
2023-01-29T12:01:55.690Z,4.86
2023-01-29T12:02:55.721Z,5.02
2023-01-29T12:03:55.844Z,4.94
2023-01-29T12:04:55.806Z,5.12
2023-01-29T12:05:55.919Z,5.37
2023-01-29T12:06:55.903Z,5.23
2023-01-29T12:07:55.957Z,4.92
2023-01-29T12:08:56.014Z,5.13
2023-01-29T12:09:56.027Z,5.13
2023-01-29T12:10:56.078Z,5.12
2023-01-29T12:11:56.146Z,4.83
2023-01-29T12:12:56.163Z,4.75
2023-01-29T12:13:56.203Z,4.36
2023-01-29T12:14:56.249Z,4.46
2023-01-29T12:15:56.333Z,4.88
2023-01-29T12:16:56.337Z,4.91
2023-01-29T12:17:56.378Z,5.22
2023-01-29T12:18:56.461Z,4.89
2023-01-29T12:19:56.482Z,5.02
2023-01-29T12:20:56.513Z,5.17
2023-01-29T12:21:56.555Z,5.32
2023-01-29T12:22:56.625Z,5.56
2023-01-29T12:23:56.641Z,5.59
2023-01-29T12:24:56.710Z,5.52
2023-01-29T12:25:56.739Z,5.28
2023-01-29T12:26:56.791Z,5.31
2023-01-29T12:27:56.838Z,4.99
2023-01-29T12:28:56.903Z,5.19
2023-01-29T12:29:56.920Z,5.22
2023-01-29T12:30:56.975Z,4.65
2023-01-29T12:31:57.002Z,4.47
2023-01-29T12:32:57.066Z,4.07
2023-01-29T12:33:57.089Z,4.22
2023-01-29T12:34:57.132Z,4.36
2023-01-29T12:35:57.169Z,4.59
2023-01-29T12:36:57.242Z,4.43
2023-01-29T12:37:57.268Z,4.40
2023-01-29T12:38:57.329Z,4.24
2023-01-29T12:39:57.375Z,4.03
2023-01-29T12:40:57.397Z,4.40
2023-01-29T12:41:57.442Z,4.52
2023-01-29T12:42:57.507Z,4.72
2023-01-29T12:43:57.548Z,4.79
2023-01-29T12:44:57.570Z,4.89
2023-01-29T12:45:57.614Z,5.04
2023-01-29T12:46:58.665Z,5.22
2023-01-29T12:47:57.741Z,5.25
2023-01-29T12:48:57.746Z,5.25
2023-01-29T12:49:57.807Z,5.10
2023-01-29T12:50:57.826Z,5.25
2023-01-29T12:51:57.914Z,5.32
2023-01-29T12:52:57.911Z,5.30
2023-01-29T12:53:57.962Z,5.48
2023-01-29T12:54:58.059Z,5.66
2023-01-29T12:55:58.079Z,5.63
2023-01-29T12:56:58.176Z,5.52
2023-01-29T12:57:58.145Z,5.55
2023-01-29T12:58:58.187Z,5.49
2023-01-29T12:59:58.265Z,5.60
2023-01-29T13:00:58.275Z,5.70
2023-01-29T13:01:58.325Z,5.52
2023-01-29T13:02:58.422Z,5.50
2023-01-29T13:03:58.405Z,5.49
2023-01-29T13:04:58.487Z,5.48
2023-01-29T13:05:58.497Z,5.43
2023-01-29T13:06:58.534Z,5.37
2023-01-29T13:07:58.583Z,5.35
2023-01-29T13:08:58.637Z,5.38
2023-01-29T13:09:58.706Z,5.35
2023-01-29T13:10:58.728Z,4.72
2023-01-29T13:11:58.757Z,4.64
2023-01-29T13:12:58.805Z,4.65
2023-01-29T13:13:58.869Z,4.58
2023-01-29T13:14:58.935Z,4.65
2023-01-29T13:15:58.941Z,4.47
2023-01-29T13:16:58.979Z,4.61
2023-01-29T13:17:59.051Z,4.67
2023-01-29T13:18:59.070Z,4.88
2023-01-29T13:19:59.115Z,4.86
2023-01-29T13:20:59.154Z,4.64
2023-01-29T13:21:59.223Z,4.51
2023-01-29T13:22:59.285Z,4.55
2023-01-29T13:23:59.284Z,4.72
2023-01-29T13:25:05.259Z,4.79
2023-01-29T13:26:00.154Z,5.07
2023-01-29T13:26:59.423Z,5.05
2023-01-29T13:27:59.492Z,5.07
2023-01-29T13:28:59.517Z,5.04
2023-01-29T13:29:59.561Z,5.12
2023-01-29T13:30:59.672Z,5.09
2023-01-29T13:31:59.709Z,4.95
2023-01-29T13:32:59.714Z,4.70
2023-01-29T13:33:59.731Z,4.75
2023-01-29T13:34:59.810Z,4.61
2023-01-29T13:35:59.812Z,4.67
2023-01-29T13:36:59.871Z,4.64
2023-01-29T13:37:59.905Z,4.73
2023-01-29T13:38:59.953Z,4.76
2023-01-29T13:40:00.030Z,4.79
2023-01-29T13:41:00.063Z,4.79
2023-01-29T13:42:00.104Z,4.70
2023-01-29T13:43:00.566Z,4.80
2023-01-29T13:44:00.161Z,4.76
2023-01-29T13:45:00.243Z,4.72
2023-01-29T13:46:00.320Z,4.61
2023-01-29T13:47:00.300Z,4.54
2023-01-29T13:48:00.336Z,4.50
2023-01-29T13:49:00.428Z,4.47
2023-01-29T13:50:00.464Z,4.54
2023-01-29T13:51:00.474Z,4.54
2023-01-29T13:52:00.516Z,4.40
2023-01-29T13:53:00.585Z,4.42
2023-01-29T13:54:00.594Z,4.34
2023-01-29T13:55:00.652Z,4.37
2023-01-29T13:56:00.681Z,4.36
2023-01-29T13:57:00.766Z,4.40
2023-01-29T13:58:00.778Z,4.42
2023-01-29T13:59:00.812Z,4.42
2023-01-29T14:00:00.865Z,4.34
2023-01-29T14:01:00.970Z,4.42
2023-01-29T14:02:00.967Z,4.39
2023-01-29T14:03:00.995Z,4.46
2023-01-29T14:04:05.421Z,4.40
2023-01-29T14:05:01.076Z,4.26
2023-01-29T14:06:01.145Z,4.22
2023-01-29T14:07:01.159Z,4.29
2023-01-29T14:08:01.201Z,4.24
2023-01-29T14:09:01.263Z,4.22
2023-01-29T14:10:01.292Z,4.26
2023-01-29T14:11:01.334Z,4.15
2023-01-29T14:12:01.377Z,4.12
2023-01-29T14:13:01.412Z,4.15
2023-01-29T14:14:01.473Z,4.19
2023-01-29T14:15:01.581Z,4.19
2023-01-29T14:16:01.554Z,4.32
2023-01-29T14:17:01.595Z,4.36
2023-01-29T14:18:01.661Z,4.40
2023-01-29T14:19:01.736Z,4.50
2023-01-29T14:20:01.708Z,4.34
2023-01-29T14:21:01.867Z,4.28
2023-01-29T14:22:01.811Z,4.32
2023-01-29T14:23:01.850Z,4.08
2023-01-29T14:24:01.890Z,3.97
2023-01-29T14:25:01.944Z,3.98
2023-01-29T14:26:02.040Z,4.01
2023-01-29T14:27:02.019Z,4.03
2023-01-29T14:28:02.066Z,4.07
2023-01-29T14:29:02.098Z,4.00
2023-01-29T14:30:02.215Z,4.00
2023-01-29T14:31:02.287Z,4.15
2023-01-29T14:32:02.242Z,4.10
2023-01-29T14:33:02.276Z,4.18
2023-01-29T14:34:02.321Z,4.26
2023-01-29T14:35:02.374Z,4.10
2023-01-29T14:36:02.396Z,4.07
2023-01-29T14:37:02.447Z,4.08
2023-01-29T14:38:02.523Z,4.08
2023-01-29T14:39:02.535Z,4.03
2023-01-29T14:40:02.573Z,4.00
2023-01-29T14:41:02.608Z,3.94
2023-01-29T14:42:02.670Z,4.03
2023-01-29T14:43:02.717Z,4.00
2023-01-29T14:44:02.744Z,4.00
2023-01-29T14:45:02.796Z,3.98
2023-01-29T14:46:02.857Z,4.07
2023-01-29T14:47:02.873Z,4.10
2023-01-29T14:48:03.029Z,4.10
2023-01-29T14:49:02.947Z,4.10
2023-01-29T14:50:03.028Z,4.14
2023-01-29T14:51:03.037Z,4.08
2023-01-29T14:52:03.111Z,4.01
2023-01-29T14:53:03.140Z,4.07
2023-01-29T14:54:03.180Z,4.01
2023-01-29T14:55:03.255Z,3.92
2023-01-29T14:56:03.275Z,3.98
2023-01-29T14:57:03.290Z,3.97
2023-01-29T14:58:03.341Z,3.94
2023-01-29T14:59:04.179Z,3.97
2023-01-29T15:00:03.550Z,3.83
2023-01-29T15:01:03.499Z,3.78
2023-01-29T15:02:03.537Z,3.76
2023-01-29T15:03:03.709Z,3.76
2023-01-29T15:04:03.588Z,3.76
2023-01-29T15:05:03.618Z,3.75
2023-01-29T15:06:03.732Z,3.70
2023-01-29T15:07:03.706Z,3.72
2023-01-29T15:08:03.759Z,3.70
2023-01-29T15:09:03.799Z,3.67
2023-01-29T15:10:21.385Z,3.62
2023-01-29T15:11:03.890Z,3.67
2023-01-29T15:12:03.922Z,3.65
2023-01-29T15:13:03.968Z,3.61
2023-01-29T15:14:04.011Z,3.50
2023-01-29T15:15:04.074Z,3.43
2023-01-29T15:16:04.679Z,3.52
2023-01-29T15:17:04.139Z,3.44
2023-01-29T15:18:04.176Z,3.61
2023-01-29T15:19:04.219Z,3.57
2023-01-29T15:20:04.282Z,3.54
2023-01-29T15:21:05.775Z,3.52
2023-01-29T15:22:04.341Z,3.49
2023-01-29T15:23:04.455Z,3.53
2023-01-29T15:24:04.417Z,3.47
2023-01-29T15:25:04.465Z,3.40
2023-01-29T15:26:04.549Z,3.42
2023-01-29T15:27:04.541Z,3.27
2023-01-29T15:28:04.587Z,3.27
2023-01-29T15:29:05.193Z,3.21
2023-01-29T15:30:04.677Z,3.16
2023-01-29T15:31:04.853Z,3.16
2023-01-29T15:32:04.789Z,3.07
2023-01-29T15:33:04.808Z,3.15
2023-01-29T15:34:05.696Z,3.00
2023-01-29T15:35:04.882Z,3.05
2023-01-29T15:36:08.693Z,3.10
2023-01-29T15:37:04.975Z,3.00
2023-01-29T15:38:05.033Z,3.06
2023-01-29T15:39:05.063Z,2.94
2023-01-29T15:40:05.121Z,3.00
2023-01-29T15:41:05.123Z,2.95
2023-01-29T15:42:05.186Z,2.94
2023-01-29T15:43:05.211Z,2.97
2023-01-29T15:44:05.244Z,2.91
2023-01-29T15:45:05.346Z,2.89
2023-01-29T15:46:05.332Z,2.85
2023-01-29T15:47:05.383Z,2.76
2023-01-29T15:48:05.419Z,2.81
2023-01-29T16:30:36.624Z,1.98
2023-01-29T16:31:36.773Z,1.98
2023-01-29T16:32:36.675Z,1.99
2023-01-29T16:33:36.691Z,1.93
2023-01-29T16:34:36.753Z,2.01
2023-01-29T16:35:37.475Z,1.94
2023-01-29T16:36:36.798Z,1.94
2023-01-29T16:37:36.827Z,1.98
2023-01-29T16:38:36.863Z,1.93
2023-01-29T16:39:36.930Z,1.98
2023-01-29T16:40:36.947Z,1.97
2023-01-29T16:41:36.977Z,1.93
2023-01-29T16:42:37.044Z,1.90
2023-01-29T16:43:42.435Z,1.93
2023-01-29T16:44:37.106Z,1.83
2023-01-29T16:45:37.168Z,1.90
2023-01-29T16:46:37.250Z,1.94
2023-01-29T16:47:37.231Z,1.98
2023-01-29T16:48:37.976Z,1.83
2023-01-29T16:49:37.306Z,1.80
2023-01-29T16:50:46.210Z,1.75
2023-01-29T16:51:37.421Z,1.83
2023-01-29T16:52:37.419Z,1.75
2023-01-29T16:53:37.498Z,1.79
2023-01-29T16:54:38.474Z,1.76
2023-01-29T16:55:37.526Z,1.79
2023-01-29T16:56:37.592Z,1.73
2023-01-29T16:57:37.622Z,1.78
2023-01-29T16:58:37.672Z,1.73
2023-01-29T16:59:37.693Z,1.82
2023-01-29T17:00:37.799Z,1.73
2023-01-29T17:01:37.817Z,1.73
2023-01-29T17:02:37.800Z,1.73
2023-01-29T17:03:37.910Z,1.71
2023-01-29T17:04:37.887Z,1.69
2023-01-29T17:05:37.925Z,1.65
2023-01-29T17:06:37.962Z,1.64
2023-01-29T17:07:38.000Z,1.62
2023-01-29T17:08:38.072Z,1.60
2023-01-29T17:09:38.115Z,1.68
2023-01-29T17:10:38.145Z,1.57
2023-01-29T17:11:38.174Z,1.52
2023-01-29T17:12:39.075Z,1.52
2023-01-29T17:13:38.269Z,1.43
2023-01-29T17:14:38.302Z,1.37
2023-01-29T17:15:38.314Z,1.37
2023-01-29T17:16:38.400Z,1.40
2023-01-29T17:17:38.393Z,1.39
2023-01-29T17:18:38.446Z,1.32
2023-01-29T17:19:38.482Z,1.37
2023-01-29T17:20:38.528Z,1.26
2023-01-29T17:21:38.588Z,1.18
2023-01-29T17:22:38.591Z,1.14
2023-01-29T17:23:38.631Z,1.16
2023-01-29T17:24:38.672Z,1.15
2023-01-29T17:25:38.732Z,1.10
2023-01-29T17:26:38.822Z,1.12
2023-01-29T17:27:38.793Z,1.07
2023-01-29T17:28:38.862Z,1.01
2023-01-29T17:29:38.879Z,1.04
2023-01-29T17:30:38.941Z,1.01
2023-01-29T17:31:39.011Z,1.01
2023-01-29T17:32:44.725Z,1.00
2023-01-29T17:33:39.039Z,1.08
2023-01-29T17:34:39.066Z,1.00
2023-01-29T17:35:39.115Z,1.00
2023-01-29T17:36:39.145Z,0.88
2023-01-29T17:37:39.219Z,0.88
2023-01-29T17:38:39.222Z,0.90
2023-01-29T17:39:39.271Z,0.89
2023-01-29T17:40:39.301Z,0.86
2023-01-29T17:41:39.369Z,0.82
2023-01-29T17:42:39.383Z,0.86
2023-01-29T17:43:39.982Z,0.83
2023-01-29T17:44:39.454Z,0.83
2023-01-29T17:45:39.528Z,0.86
2023-01-29T17:46:39.566Z,0.86
2023-01-29T17:47:39.597Z,0.89
2023-01-29T17:48:39.620Z,0.86
2023-01-29T17:49:39.681Z,0.78
2023-01-29T17:50:39.698Z,0.83
2023-01-29T17:51:39.732Z,0.82
2023-01-29T17:52:39.777Z,0.72
2023-01-29T17:53:46.081Z,0.71
2023-01-29T17:54:39.883Z,0.79
2023-01-29T17:55:39.892Z,0.65
2023-01-29T17:56:39.942Z,0.64
2023-01-29T17:57:39.977Z,0.70
2023-01-29T17:58:40.010Z,0.58
2023-01-29T17:59:40.167Z,0.67
2023-01-29T18:00:40.102Z,0.58
2023-01-29T18:01:40.155Z,0.67
2023-01-29T18:02:40.191Z,0.61
2023-01-29T18:03:40.238Z,0.65
2023-01-29T18:04:40.291Z,0.61
2023-01-29T18:05:40.283Z,0.70
2023-01-29T18:06:40.426Z,0.65
2023-01-29T18:07:40.362Z,0.75
2023-01-29T18:08:40.395Z,0.57
2023-01-29T18:09:42.131Z,0.70
2023-01-29T18:10:40.471Z,0.67
2023-01-29T18:11:40.540Z,0.67
2023-01-29T18:12:40.563Z,0.72
2023-01-29T18:13:40.599Z,0.71
2023-01-29T18:14:40.644Z,0.80
2023-01-29T18:15:40.671Z,0.68
2023-01-29T18:16:40.780Z,0.76
2023-01-29T18:17:40.769Z,0.82
2023-01-29T18:18:40.786Z,0.88
2023-01-29T18:19:40.826Z,0.89
2023-01-29T18:20:40.864Z,0.89
2023-01-29T18:21:40.927Z,0.89
2023-01-29T18:22:40.947Z,0.98
2023-01-29T18:23:40.999Z,0.88
2023-01-29T18:24:41.325Z,0.92
2023-01-29T18:25:41.076Z,1.04
2023-01-29T18:26:41.159Z,1.08
2023-01-29T18:27:41.147Z,1.03
2023-01-29T18:28:41.200Z,1.06
2023-01-29T18:29:41.243Z,1.19
2023-01-29T18:30:41.299Z,1.15
2023-01-29T18:31:41.358Z,1.24
2023-01-29T18:32:41.327Z,1.15
2023-01-29T18:33:41.403Z,1.18
2023-01-29T18:34:41.438Z,1.14
2023-01-29T18:35:41.462Z,1.12
2023-01-29T18:36:41.488Z,1.16
2023-01-29T18:37:41.534Z,1.32
2023-01-29T18:38:42.480Z,1.40
2023-01-29T18:39:41.623Z,1.39
2023-01-29T18:40:41.649Z,1.46
2023-01-29T18:41:41.688Z,1.46
2023-01-29T18:42:41.745Z,1.44
2023-01-29T18:43:41.763Z,1.50
2023-01-29T18:44:41.793Z,1.50
2023-01-29T18:45:41.940Z,1.44
2023-01-29T18:46:41.882Z,1.39
2023-01-29T18:47:41.920Z,1.50
2023-01-29T18:48:42.946Z,1.39
2023-01-29T18:49:41.996Z,1.39
2023-01-29T18:50:42.061Z,1.39
2023-01-29T18:51:42.073Z,1.50
2023-01-29T18:52:42.109Z,1.61
2023-01-29T18:53:42.154Z,1.61
2023-01-29T18:54:42.223Z,1.80
2023-01-29T18:55:42.261Z,1.82
2023-01-29T18:57:08.751Z,1.90
2023-01-29T18:58:33.523Z,1.91
2023-01-29T18:58:42.359Z,1.98
2023-01-29T18:59:42.404Z,1.99
2023-01-29T19:00:42.588Z,1.98
2023-01-29T19:01:42.459Z,2.06
2023-01-29T19:02:42.511Z,2.04
2023-01-29T19:03:42.552Z,2.04
2023-01-29T19:04:42.599Z,1.98
2023-01-29T19:05:42.658Z,2.04
2023-01-29T19:06:42.667Z,2.01
2023-01-29T19:07:42.709Z,1.93
2023-01-29T19:08:42.816Z,1.91
2023-01-29T19:09:42.796Z,1.98
2023-01-29T19:10:42.822Z,1.97
2023-01-29T19:11:42.863Z,1.91
2023-01-29T19:12:42.911Z,1.94
2023-01-29T19:13:42.969Z,1.93
2023-01-29T19:14:42.976Z,1.91
2023-01-29T19:15:43.060Z,1.91
2023-01-29T19:16:43.071Z,1.99
2023-01-29T19:17:43.107Z,1.97
2023-01-29T19:18:43.134Z,1.91
2023-01-29T19:19:43.181Z,1.93
2023-01-29T19:20:43.251Z,1.97
2023-01-29T19:21:43.266Z,1.99
2023-01-29T19:22:43.293Z,1.91
2023-01-29T19:23:43.345Z,1.99
2023-01-29T19:24:43.380Z,2.02
2023-01-29T19:25:43.445Z,2.04
2023-01-29T19:26:43.480Z,2.06
2023-01-29T19:27:43.504Z,2.10
2023-01-29T19:28:43.560Z,2.01
2023-01-29T19:29:43.582Z,2.12
2023-01-29T19:30:43.632Z,2.20
2023-01-29T19:31:43.730Z,2.16
2023-01-29T19:32:43.701Z,2.08
2023-01-29T19:33:43.738Z,2.06
2023-01-29T19:34:43.775Z,2.10
2023-01-29T19:35:43.810Z,2.12
2023-01-29T19:36:43.888Z,2.10
2023-01-29T19:37:43.898Z,2.12
2023-01-29T19:38:43.938Z,2.08
2023-01-29T19:39:43.967Z,2.09
2023-01-29T19:40:44.032Z,2.04
2023-01-29T19:41:44.089Z,2.12
2023-01-29T19:42:44.092Z,2.06
2023-01-29T19:43:44.126Z,2.12
2023-01-29T19:44:44.177Z,2.10
2023-01-29T19:45:49.610Z,2.08
2023-01-29T19:46:44.281Z,2.04
2023-01-29T19:47:44.320Z,2.12
2023-01-29T19:48:44.353Z,2.01
2023-01-29T19:49:44.374Z,1.99
2023-01-29T19:50:44.407Z,2.09
2023-01-29T19:51:44.454Z,2.08
2023-01-29T19:52:52.005Z,2.08
2023-01-29T19:53:44.568Z,2.06
2023-01-29T19:54:44.596Z,2.12
2023-01-29T19:55:44.635Z,2.09
2023-01-29T19:56:44.669Z,2.04
2023-01-29T19:57:44.688Z,1.99
2023-01-29T19:58:44.797Z,1.99
2023-01-29T19:59:45.931Z,1.99
2023-01-29T20:00:44.853Z,1.98
2023-01-29T20:01:44.902Z,1.93
2023-01-29T20:02:44.911Z,1.97
2023-01-29T20:03:44.921Z,1.91
2023-01-29T20:04:44.984Z,2.02
2023-01-29T20:05:45.061Z,2.04
2023-01-29T20:06:45.122Z,2.06
2023-01-29T20:07:45.126Z,2.01
2023-01-29T20:08:45.147Z,1.99
2023-01-29T20:09:45.178Z,2.10
2023-01-29T20:10:45.239Z,2.08
2023-01-29T20:11:45.288Z,2.02
2023-01-29T20:12:45.319Z,2.04
2023-01-29T20:13:45.341Z,1.97
2023-01-29T20:14:45.427Z,1.93
2023-01-29T20:15:45.434Z,1.97
2023-01-29T20:16:45.474Z,1.94
2023-01-29T20:17:45.531Z,1.83
2023-01-29T20:18:45.544Z,1.89
2023-01-29T20:19:45.577Z,1.87
2023-01-29T20:20:45.693Z,1.75
2023-01-29T20:21:46.159Z,1.83
2023-01-29T20:22:45.731Z,1.78
2023-01-29T20:23:46.065Z,1.71
2023-01-29T20:24:45.767Z,1.62
2023-01-29T20:25:45.798Z,1.68
2023-01-29T20:26:45.948Z,1.71
2023-01-29T20:27:45.912Z,1.72
2023-01-29T20:28:45.959Z,1.68
2023-01-29T20:29:46.042Z,1.65
2023-01-29T20:30:46.124Z,1.62
2023-01-29T20:31:46.116Z,1.54
2023-01-29T20:32:46.079Z,1.55
2023-01-29T20:33:46.132Z,1.46
2023-01-29T20:34:46.157Z,1.42
2023-01-29T20:35:46.213Z,1.34
2023-01-29T20:36:46.244Z,1.37
2023-01-29T20:37:46.274Z,1.33
2023-01-29T20:38:46.306Z,1.18
2023-01-29T20:39:46.344Z,1.19
2023-01-29T20:40:46.458Z,1.07
2023-01-29T20:41:46.427Z,0.97
2023-01-29T20:42:46.475Z,1.01
2023-01-29T20:43:46.521Z,1.00
2023-01-29T20:44:46.560Z,1.06
2023-01-29T20:45:46.648Z,1.00
2023-01-29T20:46:46.650Z,0.89
2023-01-29T20:47:46.673Z,1.00
2023-01-29T20:48:46.731Z,1.01
2023-01-29T20:49:46.767Z,1.00
2023-01-29T20:50:46.825Z,1.03
2023-01-29T20:51:46.827Z,1.07
2023-01-29T20:52:46.952Z,1.14
2023-01-29T20:53:46.957Z,1.10
2023-01-29T20:54:46.946Z,1.03
2023-01-29T20:55:47.052Z,1.08
2023-01-29T20:56:47.388Z,1.06
2023-01-29T20:58:05.849Z,1.10
2023-01-29T20:58:47.149Z,1.04
2023-01-29T20:59:47.153Z,0.98
2023-01-29T21:00:48.033Z,0.96
2023-01-29T21:01:47.271Z,0.94
2023-01-29T21:02:47.280Z,0.89
2023-01-29T21:03:47.297Z,0.89
2023-01-29T21:04:47.324Z,0.86
2023-01-29T21:05:47.421Z,1.00
2023-01-29T21:06:47.396Z,1.01
2023-01-29T21:07:47.468Z,1.07
2023-01-29T21:08:47.471Z,1.07
2023-01-29T21:09:47.518Z,1.00
2023-01-29T21:10:47.563Z,0.97
2023-01-29T21:11:47.596Z,1.08
2023-01-29T21:12:47.657Z,1.07
2023-01-29T21:13:47.683Z,1.07
2023-01-29T21:14:47.727Z,1.03
2023-01-29T21:15:47.782Z,1.07
2023-01-29T21:16:47.892Z,1.07
2023-01-29T21:17:47.830Z,0.94
2023-01-29T21:30:10.691Z,0.51
2023-01-29T21:31:10.733Z,0.58
2023-01-29T21:32:10.743Z,0.64
2023-01-29T21:33:10.805Z,0.61
2023-01-29T21:34:10.820Z,0.51
2023-01-29T21:35:10.888Z,0.51
2023-01-29T21:36:10.887Z,0.49
2023-01-29T21:37:10.937Z,0.52
2023-01-29T21:38:10.977Z,0.52
2023-01-29T21:39:11.006Z,0.49
2023-01-29T21:40:11.057Z,0.45
2023-01-29T21:41:11.110Z,0.45
2023-01-29T21:42:11.121Z,0.43
2023-01-29T21:43:11.149Z,0.31
2023-01-29T21:44:11.206Z,0.33
2023-01-29T21:45:11.264Z,0.27
2023-01-29T21:46:11.405Z,0.27
2023-01-29T21:47:11.300Z,0.33
2023-01-29T21:48:11.352Z,0.18
2023-01-29T21:49:11.389Z,0.24
2023-01-29T21:50:11.429Z,0.25
2023-01-29T21:51:11.524Z,0.18
2023-01-29T21:52:11.497Z,0.23
2023-01-29T21:53:11.539Z,0.15
2023-01-29T21:54:11.573Z,0.21
2023-01-29T21:55:11.614Z,0.18
2023-01-29T21:56:11.678Z,0.18
2023-01-29T21:57:11.694Z,0.18
2023-01-29T21:58:14.224Z,0.10
2023-01-29T21:59:11.766Z,0.09
2023-01-29T22:00:11.800Z,0.13
2023-01-29T22:01:36.250Z,0.13
2023-01-29T22:02:11.972Z,0.09
2023-01-29T22:03:11.919Z,0.16
2023-01-29T22:04:11.951Z,0.18
2023-01-29T22:05:19.433Z,0.23
2023-01-29T22:06:12.063Z,0.23
2023-01-29T22:07:12.070Z,0.18
2023-01-29T22:08:12.100Z,0.07
2023-01-29T22:09:12.172Z,0.23
2023-01-29T22:10:12.205Z,0.25
2023-01-29T22:11:12.220Z,0.39
2023-01-29T22:12:12.941Z,0.45
2023-01-29T22:13:12.288Z,0.46
2023-01-29T22:14:12.366Z,0.45
2023-01-29T22:15:12.385Z,0.45
2023-01-29T22:16:12.414Z,0.36
2023-01-29T22:17:12.515Z,0.36
2023-01-29T22:18:13.437Z,0.27
2023-01-29T22:19:12.559Z,0.20
2023-01-29T22:20:12.563Z,0.21
2023-01-29T22:21:12.604Z,0.23
2023-01-29T22:22:12.636Z,0.23
2023-01-29T22:23:12.676Z,0.25
2023-01-29T22:24:12.742Z,0.23
2023-01-29T22:25:12.758Z,0.20
2023-01-29T22:26:12.818Z,0.23
2023-01-29T22:27:12.836Z,0.27
2023-01-29T22:28:12.898Z,0.23
2023-01-29T22:29:12.900Z,0.20
2023-01-29T22:30:12.946Z,0.20
2023-01-29T22:31:12.976Z,0.23
2023-01-29T22:32:13.039Z,0.16
2023-01-29T22:33:13.092Z,0.21